Folsom, New Mexico
Current Conditions -  °F | °C
As of 6:54 PM on Sunday 25 Jan 2015 (Local Time) from KTAD Reporting Station
Clear Clear  
Wind Chill: 32°   Ceiling: Unl
Heat Index: 37°   Visibility: 10mi
Dew Point: 27°   Wind: 6mph
Humidity: 67%   Direction: 270°W
Pressure: 30.21"   Gusts: NA
Location:  36.85°N, 103.92°W
Report Text: KTAD 260154Z AUTO 27005KT 10SM CLR 03/M03 A3021 RMK AO2 SLP244 T00281028
Loading
Personal Weather Stations






























Interactive Weather Map New forecast layout! Learn more

10-Day Weather Forecast

Advertisements
Track Severe Weather on mobile